Time;durP1;ratioP1;P1;durP2;ratioP2;P2;SDS_P1;SDS_P2;PMS_P1;PMS_P2;Temp;Humidity;BMP_temperature;BMP_pressure;BME280_temperature;BME280_humidity;BME280_pressure;Samples;Min_cycle;Max_cycle;Signal;HPM_P1;HPM_P2
2022/01/08 00:00:35;;;;;;;336.43;128.42;;;;;;;-6.38;66.80;94694.42;1758648;80;21156;-52
2022/01/08 00:03:03;;;;;;;299.75;121.10;;;;;;;-6.46;66.42;94696.13;1754902;80;21648;-51
2022/01/08 00:05:30;;;;;;;234.90;94.05;;;;;;;-6.62;66.44;94697.98;1778750;80;21061;-51
2022/01/08 00:07:56;;;;;;;239.93;100.85;;;;;;;-6.79;66.68;94699.59;1748462;80;21059;-52
2022/01/08 00:10:25;;;;;;;256.82;115.20;;;;;;;-7.05;66.93;94694.98;1752945;80;21110;-50
2022/01/08 00:12:53;;;;;;;278.48;119.70;;;;;;;-7.24;67.48;94698.80;1735630;82;21115;-51
2022/01/08 00:15:22;;;;;;;264.12;112.80;;;;;;;-7.26;68.09;94690.35;1738288;81;21014;-52
2022/01/08 00:17:49;;;;;;;282.40;118.05;;;;;;;-7.15;68.33;94694.13;1663813;83;21494;-50
2022/01/08 00:20:16;;;;;;;294.02;120.57;;;;;;;-6.99;68.24;94692.31;1739672;80;20965;-50
2022/01/08 00:22:42;;;;;;;285.27;122.40;;;;;;;-6.80;68.01;94686.55;1757914;80;21013;-50
2022/01/08 00:25:11;;;;;;;299.67;128.12;;;;;;;-6.64;67.51;94684.17;1755983;80;21864;-51
2022/01/08 00:27:39;;;;;;;342.05;142.70;;;;;;;-6.54;66.89;94675.64;1773744;80;20943;-50
2022/01/08 00:30:07;;;;;;;261.62;107.58;;;;;;;-6.57;66.85;94672.86;1772747;80;20973;-51
2022/01/08 00:32:33;;;;;;;293.50;125.18;;;;;;;-6.64;66.81;94672.68;1741509;80;20971;-50
2022/01/08 00:35:00;;;;;;;238.28;105.55;;;;;;;-6.94;67.04;94674.13;1758234;80;20994;-51
2022/01/08 00:37:29;;;;;;;244.40;105.05;;;;;;;-7.08;67.20;94663.59;1755155;80;21170;-52
2022/01/08 00:39:58;;;;;;;242.70;101.25;;;;;;;-7.14;67.47;94656.36;1727882;80;21013;-51
2022/01/08 00:42:24;;;;;;;224.98;97.33;;;;;;;-7.00;67.95;94654.10;1731087;82;21058;-51
2022/01/08 00:44:53;;;;;;;264.17;109.97;;;;;;;-6.93;67.49;94652.41;1678093;83;20971;-52
2022/01/08 00:47:19;;;;;;;254.25;106.75;;;;;;;-6.99;67.68;94650.31;1753019;80;21093;-51
2022/01/08 00:49:46;;;;;;;246.82;107.90;;;;;;;-7.01;67.91;94645.11;1731808;80;21149;-50
2022/01/08 00:52:12;;;;;;;251.50;104.85;;;;;;;-6.97;68.11;94642.19;1731525;80;21445;-50
2022/01/08 00:54:39;;;;;;;263.32;110.65;;;;;;;-6.93;68.13;94647.06;1713655;80;21037;-50
2022/01/08 00:57:11;;;;;;;237.23;103.25;;;;;;;-6.86;68.05;94637.89;1733630;80;21533;-50
2022/01/08 00:59:38;;;;;;;226.40;96.03;;;;;;;-6.88;67.82;94640.13;1768188;80;21022;-50
2022/01/08 01:02:04;;;;;;;222.00;94.13;;;;;;;-6.96;67.78;94630.92;1723553;80;21170;-50
2022/01/08 01:04:36;;;;;;;204.38;90.47;;;;;;;-7.01;67.95;94637.84;1725481;81;21495;-51
2022/01/08 01:07:04;;;;;;;216.02;91.92;;;;;;;-7.11;67.51;94630.88;1767807;80;21556;-50
2022/01/08 01:09:30;;;;;;;271.32;110.78;;;;;;;-7.31;67.37;94634.49;1758486;80;21050;-49
2022/01/08 01:11:58;;;;;;;275.30;103.20;;;;;;;-7.50;67.78;94624.97;1765480;80;21009;-51
2022/01/08 01:14:25;;;;;;;279.23;110.68;;;;;;;-7.50;68.15;94626.30;1754483;80;21145;-51
2022/01/08 01:16:52;;;;;;;245.07;104.07;;;;;;;-7.59;67.93;94620.30;1737169;80;21220;-50
2022/01/08 01:19:21;;;;;;;241.00;97.82;;;;;;;-7.63;68.33;94619.41;1748425;80;21069;-51
2022/01/08 01:21:53;;;;;;;213.97;94.92;;;;;;;-7.60;68.25;94610.19;1753144;80;20967;-51
2022/01/08 01:24:22;;;;;;;229.55;94.65;;;;;;;-7.63;68.39;94618.08;1757736;80;21482;-51
2022/01/08 01:48:29;;;;;;;264.08;109.03;;;;;;;-7.35;67.36;94577.53;1761812;80;20960;-49
2022/01/08 01:50:59;;;;;;;323.73;131.75;;;;;;;-7.12;67.11;94577.21;1733648;80;20946;-50
2022/01/08 01:53:27;;;;;;;293.02;118.62;;;;;;;-6.93;66.58;94588.25;1760902;80;21103;-50
2022/01/08 01:55:54;;;;;;;290.65;120.45;;;;;;;-6.96;66.08;94580.92;1751644;80;21006;-51
2022/01/08 01:58:23;;;;;;;272.42;113.72;;;;;;;-6.92;66.30;94575.11;1757462;80;20954;-50
2022/01/08 02:00:51;;;;;;;260.60;103.38;;;;;;;-6.86;65.66;94571.05;1753374;80;21037;-50
2022/01/08 02:03:18;;;;;;;262.35;110.83;;;;;;;-6.95;65.31;94571.78;1751194;80;21112;-52
2022/01/08 02:05:46;;;;;;;236.70;99.80;;;;;;;-7.18;65.28;94574.57;1727127;81;21049;-51
2022/01/08 02:08:18;;;;;;;246.43;101.72;;;;;;;-7.41;65.56;94574.85;1726713;81;20952;-51
2022/01/08 02:10:47;;;;;;;210.72;86.60;;;;;;;-7.63;65.86;94571.36;1734580;81;20989;-49
2022/01/08 02:13:23;;;;;;;252.90;100.07;;;;;;;-7.79;66.22;94569.95;1744219;80;21025;-52
2022/01/08 02:15:52;;;;;;;219.37;90.07;;;;;;;-7.92;66.73;94570.31;1769806;80;21034;-50
2022/01/08 02:18:20;;;;;;;232.05;90.62;;;;;;;-7.98;67.38;94565.76;1762583;80;21132;-51
2022/01/08 02:20:49;;;;;;;205.32;84.15;;;;;;;-7.92;67.60;94566.31;1756958;80;20990;-50
2022/01/08 02:23:15;;;;;;;215.85;88.62;;;;;;;-7.90;67.30;94560.08;1758485;80;21120;-49
2022/01/08 02:25:42;;;;;;;204.97;84.07;;;;;;;-7.93;67.61;94559.39;1757893;80;20998;-50
2022/01/08 02:28:09;;;;;;;183.80;76.97;;;;;;;-7.89;67.50;94561.63;1703196;82;21027;-49
2022/01/08 02:30:36;;;;;;;170.15;69.32;;;;;;;-7.78;67.56;94554.16;1725103;82;21235;-50
2022/01/08 02:33:03;;;;;;;176.95;70.75;;;;;;;-7.65;67.35;94548.23;1727123;81;21069;-51
2022/01/08 02:35:29;;;;;;;217.13;83.10;;;;;;;-7.54;67.27;94555.42;1714867;82;21486;-50
2022/01/08 02:37:58;;;;;;;212.50;84.15;;;;;;;-7.49;66.97;94550.41;1726877;82;20986;-50
2022/01/08 02:40:25;;;;;;;227.43;85.72;;;;;;;-7.56;66.65;94552.89;1755859;79;21164;-49
2022/01/08 02:43:00;;;;;;;253.92;101.60;;;;;;;-7.72;66.87;94550.70;1735949;80;21093;-49
2022/01/08 02:45:22;;;;;;;261.37;98.12;;;;;;;-7.74;67.21;94539.59;1765589;80;21469;-50
2022/01/08 02:47:51;;;;;;;225.72;92.97;;;;;;;-7.67;67.33;94545.13;1759392;80;20951;-49
2022/01/08 02:50:17;;;;;;;266.42;101.95;;;;;;;-7.64;67.39;94538.56;1757901;80;20975;-51
2022/01/08 02:52:45;;;;;;;308.43;116.55;;;;;;;-7.54;67.28;94530.63;1761245;80;20978;-49
2022/01/08 02:55:19;;;;;;;303.67;116.47;;;;;;;-7.33;66.95;94541.90;1763738;80;21153;-49
2022/01/08 02:57:46;;;;;;;319.40;118.65;;;;;;;-7.22;66.13;94533.59;1764627;80;21102;-51
2022/01/08 03:00:15;;;;;;;293.93;114.57;;;;;;;-7.23;66.43;94528.04;1757916;80;21560;-50
2022/01/08 03:02:48;;;;;;;307.50;124.20;;;;;;;-7.09;66.13;94534.56;1754670;80;21502;-50
2022/01/08 03:05:15;;;;;;;282.95;109.67;;;;;;;-7.01;65.70;94527.51;1772689;80;20935;-50
2022/01/08 03:07:43;;;;;;;412.08;138.20;;;;;;;-7.04;65.22;94527.63;1767865;80;21093;-49
2022/01/08 03:10:11;;;;;;;294.62;113.40;;;;;;;-7.06;65.29;94533.08;1760431;80;20999;-51
2022/01/08 03:12:41;;;;;;;272.77;107.03;;;;;;;-6.99;65.13;94533.28;1773045;80;21151;-51
2022/01/08 03:15:18;;;;;;;276.95;112.03;;;;;;;-6.91;64.83;94525.88;1750336;80;21006;-49
2022/01/08 03:17:44;;;;;;;398.05;132.63;;;;;;;-6.88;64.29;94534.53;1775462;80;21426;-49
2022/01/08 03:20:14;;;;;;;402.13;135.93;;;;;;;-6.98;64.28;94533.50;1738540;80;21096;-49
2022/01/08 03:22:45;;;;;;;324.50;119.45;;;;;;;-7.17;64.55;94533.38;1761587;80;21010;-51
2022/01/08 03:25:15;;;;;;;300.80;118.17;;;;;;;-7.25;65.08;94530.28;1754434;80;20952;-49
2022/01/08 03:27:42;;;;;;;302.85;125.35;;;;;;;-7.25;64.97;94527.61;1761793;80;20995;-49
2022/01/08 03:30:11;;;;;;;361.60;139.43;;;;;;;-7.23;65.11;94524.03;1741978;80;20966;-50
2022/01/08 03:32:40;;;;;;;237.95;94.75;;;;;;;-7.12;65.19;94530.45;1750861;80;20990;-51
2022/01/08 03:35:09;;;;;;;221.32;93.40;;;;;;;-7.14;65.11;94515.32;1766734;80;21014;-50
2022/01/08 03:37:35;;;;;;;248.55;103.35;;;;;;;-7.24;65.17;94522.48;1753271;80;21538;-51
2022/01/08 03:40:04;;;;;;;227.38;91.75;;;;;;;-7.34;65.21;94522.41;1698373;82;21133;-51
2022/01/08 03:42:31;;;;;;;209.57;87.40;;;;;;;-7.47;65.36;94517.46;1715968;82;21010;-51
2022/01/08 03:44:57;;;;;;;237.70;96.82;;;;;;;-7.58;65.63;94513.70;1719110;81;21719;-51
2022/01/08 03:49:50;;;;;;;232.37;94.60;;;;;;;-7.60;66.38;94509.27;1729947;82;21066;-51
2022/01/08 03:52:16;;;;;;;219.68;94.80;;;;;;;-7.62;66.34;94509.62;1717367;82;21015;-49
2022/01/08 03:54:45;;;;;;;229.53;98.27;;;;;;;-7.70;66.44;94511.09;1728585;82;21065;-49
2022/01/08 03:57:11;;;;;;;240.15;100.30;;;;;;;-7.73;66.88;94523.80;1712251;83;21182;-50
2022/01/08 03:59:38;;;;;;;232.85;96.42;;;;;;;-7.62;67.30;94512.84;1736937;81;21137;-50
2022/01/08 04:02:06;;;;;;;257.83;108.70;;;;;;;-7.51;66.97;94505.91;1708259;82;21041;-51
2022/01/08 04:04:35;;;;;;;205.60;88.47;;;;;;;-7.44;67.37;94492.20;1722305;82;21002;-51
2022/01/08 04:07:02;;;;;;;225.13;92.17;;;;;;;-7.26;67.11;94503.34;1718565;82;20962;-51
2022/01/08 04:09:30;;;;;;;261.50;105.78;;;;;;;-7.22;66.48;94512.23;1720027;82;21158;-49
2022/01/08 04:12:04;;;;;;;213.20;89.58;;;;;;;-7.31;66.54;94512.95;1737748;82;21007;-50
2022/01/08 04:14:37;;;;;;;240.20;102.10;;;;;;;-7.36;66.19;94514.54;1719265;82;21061;-49
2022/01/08 04:16:59;;;;;;;161.12;70.83;;;;;;;-7.49;66.23;94500.44;1722444;82;21419;-50
2022/01/08 04:19:25;;;;;;;200.15;85.77;;;;;;;-7.57;66.01;94498.70;1774004;80;21045;-49
2022/01/08 04:22:09;;;;;;;180.52;82.02;;;;;;;-7.73;66.04;94494.43;1739916;81;21151;-50
2022/01/08 04:24:29;;;;;;;196.82;88.35;;;;;;;-7.75;66.49;94499.30;1732235;81;20959;-50
2022/01/08 04:26:57;;;;;;;219.45;93.17;;;;;;;-7.76;66.63;94502.55;1712062;82;21063;-50
2022/01/08 04:29:24;;;;;;;221.82;92.25;;;;;;;-7.78;66.81;94499.98;1734773;82;21018;-50
2022/01/08 04:31:50;;;;;;;227.22;97.65;;;;;;;-7.77;66.96;94497.53;1642861;85;21125;-51
2022/01/08 04:34:17;;;;;;;243.37;102.60;;;;;;;-7.77;66.94;94497.53;1700607;83;21141;-49
2022/01/08 04:36:43;;;;;;;229.45;101.62;;;;;;;-7.81;67.31;94485.44;1748194;80;20992;-50
2022/01/08 04:39:10;;;;;;;220.88;97.27;;;;;;;-7.76;67.36;94491.08;1738809;80;21037;-50
2022/01/08 04:41:37;;;;;;;220.50;99.40;;;;;;;-7.81;67.57;94495.33;1768070;79;20987;-49
2022/01/08 04:44:07;;;;;;;254.72;117.87;;;;;;;-7.80;68.01;94487.53;1755922;80;20995;-51
2022/01/08 04:46:35;;;;;;;240.35;109.12;;;;;;;-7.76;67.89;94491.08;1735712;80;21119;-50
2022/01/08 04:49:01;;;;;;;238.85;102.00;;;;;;;-7.76;68.16;94485.19;1748468;80;21019;-50
2022/01/08 04:51:32;;;;;;;244.93;109.00;;;;;;;-7.63;68.22;94489.92;1771675;80;21006;-50
2022/01/08 04:53:58;;;;;;;219.70;100.95;;;;;;;-7.46;68.04;94499.78;1731219;82;21453;-51
2022/01/08 04:56:25;;;;;;;237.23;106.10;;;;;;;-7.31;67.73;94491.58;1730519;81;20979;-50
2022/01/08 04:58:54;;;;;;;216.38;97.30;;;;;;;-7.22;67.49;94500.20;1739970;80;21223;-50
2022/01/08 05:01:20;;;;;;;219.13;96.70;;;;;;;-7.23;67.46;94486.09;1769963;80;21050;-51
2022/01/08 05:03:47;;;;;;;216.50;93.70;;;;;;;-7.23;67.28;94487.42;1740372;80;20958;-51
2022/01/08 05:06:13;;;;;;;230.62;103.12;;;;;;;-7.28;67.13;94478.88;1762277;80;21069;-51
2022/01/08 05:08:40;;;;;;;218.20;101.80;;;;;;;-7.35;67.01;94484.80;1756209;80;20990;-51
2022/01/08 05:11:06;;;;;;;229.82;102.55;;;;;;;-7.42;67.27;94479.83;1774476;80;21095;-50
2022/01/08 05:13:33;;;;;;;206.95;96.90;;;;;;;-7.38;67.54;94480.72;1729496;80;21569;-51
2022/01/08 05:16:03;;;;;;;221.22;102.45;;;;;;;-7.30;67.50;94469.85;1759887;80;21545;-51
2022/01/08 05:18:31;;;;;;;202.38;94.37;;;;;;;-7.27;67.32;94473.74;1767514;80;21494;-50
2022/01/08 05:21:13;;;;;;;186.90;84.37;;;;;;;-7.27;67.22;94469.73;1758833;80;21407;-50
2022/01/08 05:23:26;;;;;;;211.43;91.12;;;;;;;-7.31;67.26;94471.55;1742937;80;21162;-50
2022/01/08 05:25:53;;;;;;;216.02;92.55;;;;;;;-7.32;67.26;94479.34;1756605;80;21002;-50
2022/01/08 05:28:20;;;;;;;215.43;95.25;;;;;;;-7.34;67.42;94473.57;1716340;82;21105;-49
2022/01/08 05:30:46;;;;;;;202.13;90.30;;;;;;;-7.32;67.63;94470.75;1733787;82;20951;-50
2022/01/08 05:33:13;;;;;;;212.42;92.10;;;;;;;-7.16;67.77;94470.80;1689459;83;21113;-49
2022/01/08 05:35:42;;;;;;;209.72;98.55;;;;;;;-7.04;67.56;94476.06;1750828;80;21080;-49
2022/01/08 05:38:10;;;;;;;200.95;93.07;;;;;;;-6.89;67.74;94478.77;1731725;81;20991;-51
2022/01/08 05:40:39;;;;;;;259.50;120.10;;;;;;;-6.72;67.15;94479.19;1729558;82;20959;-50
2022/01/08 05:43:07;;;;;;;240.50;109.10;;;;;;;-6.63;67.02;94487.03;1770006;80;20959;-50
2022/01/08 05:45:37;;;;;;;240.90;109.78;;;;;;;-6.53;67.13;94480.60;1755410;80;21408;-50
2022/01/08 05:48:05;;;;;;;222.63;100.92;;;;;;;-6.43;66.59;94491.33;1759181;81;21133;-49
2022/01/08 05:50:33;;;;;;;263.12;113.88;;;;;;;-6.50;66.26;94490.59;1757307;80;21482;-50
2022/01/08 05:53:00;;;;;;;245.63;105.97;;;;;;;-6.60;66.19;94484.45;1754286;80;21082;-50
2022/01/08 05:55:27;;;;;;;251.35;108.07;;;;;;;-6.70;66.09;94484.96;1742893;82;20935;-50
2022/01/08 05:57:53;;;;;;;242.70;105.27;;;;;;;-6.74;66.23;94478.75;1719625;82;21019;-50
2022/01/08 06:00:20;;;;;;;235.82;104.30;;;;;;;-6.71;66.14;94479.40;1676466;82;21550;-50
2022/01/08 06:02:50;;;;;;;205.43;88.62;;;;;;;-6.67;66.25;94478.16;1703370;82;21592;-50
2022/01/08 06:05:19;;;;;;;174.68;82.27;;;;;;;-6.69;66.08;94477.16;1722228;82;21761;-50
2022/01/08 06:07:46;;;;;;;170.60;75.15;;;;;;;-6.75;66.03;94481.22;1725464;82;21018;-50
2022/01/08 06:10:12;;;;;;;167.32;77.95;;;;;;;-6.78;66.19;94479.23;1674243;81;21077;-51
2022/01/08 06:12:41;;;;;;;156.60;68.55;;;;;;;-6.71;66.15;94488.76;1719023;82;21018;-49
2022/01/08 06:15:09;;;;;;;148.72;67.10;;;;;;;-6.63;65.88;94492.38;1707999;82;21479;-50
2022/01/08 06:17:37;;;;;;;219.10;97.15;;;;;;;-6.63;65.96;94489.16;1739419;80;20961;-54
2022/01/08 06:20:07;;;;;;;201.88;96.05;;;;;;;-6.66;66.16;94491.74;1728957;80;21002;-50
2022/01/08 06:22:34;;;;;;;178.87;80.85;;;;;;;-6.55;66.34;94486.86;1754441;80;20938;-50
2022/01/08 06:25:00;;;;;;;249.10;115.12;;;;;;;-6.46;66.11;94482.13;1756904;80;21965;-51
2022/01/08 06:27:27;;;;;;;336.10;154.38;;;;;;;-6.47;65.95;94479.23;1742561;81;20974;-50
2022/01/08 06:29:55;;;;;;;242.68;107.58;;;;;;;-6.53;65.83;94489.20;1757888;80;21465;-51
2022/01/08 06:32:22;;;;;;;206.07;91.30;;;;;;;-6.59;65.84;94486.55;1722802;81;21006;-50
2022/01/08 06:34:52;;;;;;;171.28;77.82;;;;;;;-6.67;66.21;94494.96;1728757;82;21055;-52
2022/01/08 06:37:22;;;;;;;277.32;131.82;;;;;;;-6.63;66.13;94493.72;1731266;80;21919;-50
2022/01/08 06:39:52;;;;;;;236.22;111.47;;;;;;;-6.73;66.02;94501.70;1759140;80;21459;-51
2022/01/08 06:42:19;;;;;;;236.12;109.72;;;;;;;-6.73;66.45;94508.38;1748834;80;21483;-49
2022/01/08 06:44:45;;;;;;;255.37;116.75;;;;;;;-6.68;66.54;94497.42;1750147;80;21060;-52
2022/01/08 06:47:12;;;;;;;271.85;120.17;;;;;;;-6.63;66.61;94498.52;1763446;80;21014;-52
2022/01/08 06:49:40;;;;;;;277.52;122.17;;;;;;;-6.62;66.66;94502.75;1760134;80;21082;-52
2022/01/08 06:52:07;;;;;;;253.80;127.07;;;;;;;-6.50;67.17;94505.31;1760512;80;21563;-50
2022/01/08 06:54:34;;;;;;;256.25;124.60;;;;;;;-6.41;66.60;94502.46;1758856;80;21035;-52
2022/01/08 06:57:00;;;;;;;284.73;130.63;;;;;;;-6.37;66.86;94494.73;1763167;80;21026;-52
2022/01/08 06:59:30;;;;;;;244.50;117.37;;;;;;;-6.24;66.97;94484.16;1772417;80;21676;-50
2022/01/08 07:01:56;;;;;;;214.68;102.75;;;;;;;-6.02;66.48;94491.53;1740421;80;21507;-50
2022/01/08 07:04:23;;;;;;;229.23;112.50;;;;;;;-6.00;65.70;94491.95;1774334;80;21002;-51
2022/01/08 07:06:52;;;;;;;248.20;122.25;;;;;;;-6.07;65.76;94489.68;1757884;80;21402;-51
2022/01/08 07:09:19;;;;;;;273.30;128.82;;;;;;;-6.11;65.58;94500.33;1764910;80;20981;-50
2022/01/08 07:11:45;;;;;;;376.40;159.37;;;;;;;-6.13;65.28;94493.77;1762606;80;20955;-50
2022/01/08 07:14:14;;;;;;;232.70;101.78;;;;;;;-6.16;65.65;94491.20;1760021;80;21485;-52
2022/01/08 07:16:41;;;;;;;259.32;122.87;;;;;;;-6.00;65.33;94498.65;1761700;80;21078;-51
2022/01/08 07:19:07;;;;;;;240.55;122.58;;;;;;;-6.05;64.86;94497.59;1762694;80;20951;-51
2022/01/08 07:21:34;;;;;;;248.05;123.95;;;;;;;-6.05;65.17;94495.45;1765071;80;21114;-53
2022/01/08 07:24:02;;;;;;;264.70;127.22;;;;;;;-6.04;64.94;94492.45;1749407;80;21163;-54
2022/01/08 07:26:32;;;;;;;292.15;136.68;;;;;;;-6.03;65.14;94492.66;1761134;80;21128;-51
2022/01/08 07:29:00;;;;;;;254.57;125.80;;;;;;;-6.05;65.24;94492.78;1780257;80;21018;-52
2022/01/08 07:31:28;;;;;;;244.43;123.60;;;;;;;-5.93;65.79;94498.80;1749491;80;21082;-50
2022/01/08 07:33:56;;;;;;;232.37;118.93;;;;;;;-5.85;65.50;94488.47;1771677;80;20951;-52
2022/01/08 07:36:24;;;;;;;192.95;95.25;;;;;;;-5.90;65.59;94488.75;1773526;80;21013;-51
2022/01/08 07:38:52;;;;;;;230.67;117.45;;;;;;;-5.96;65.62;94498.16;1774448;80;21087;-51
2022/01/08 07:41:19;;;;;;;250.50;118.42;;;;;;;-5.99;65.77;94496.19;1765681;80;21002;-52
2022/01/08 07:43:49;;;;;;;316.02;144.43;;;;;;;-5.92;65.74;94494.23;1748963;80;20997;-53
2022/01/08 07:46:15;;;;;;;316.48;148.68;;;;;;;-5.91;65.62;94503.81;1741411;81;21027;-52
2022/01/08 07:48:45;;;;;;;276.77;135.30;;;;;;;-5.93;65.87;94486.75;1731567;82;21058;-51
2022/01/08 07:51:13;;;;;;;231.25;116.60;;;;;;;-5.78;66.26;94485.89;1729025;82;21930;-53
2022/01/08 07:53:40;;;;;;;196.98;103.15;;;;;;;-5.63;66.37;94477.03;1731364;82;21109;-53
2022/01/08 07:56:08;;;;;;;236.80;119.95;;;;;;;-5.53;65.92;94480.50;1733209;82;21006;-52
2022/01/08 07:58:35;;;;;;;226.20;112.28;;;;;;;-5.47;65.80;94472.38;1765811;80;21058;-52
2022/01/08 08:01:02;;;;;;;258.10;129.70;;;;;;;-5.43;65.68;94469.78;1760949;80;21042;-52
2022/01/08 08:03:29;;;;;;;369.57;156.00;;;;;;;-5.39;65.73;94482.68;1758296;80;21131;-51
2022/01/08 08:05:56;;;;;;;323.32;144.75;;;;;;;-5.31;65.29;94483.80;1752671;80;20986;-53
2022/01/08 08:08:22;;;;;;;292.45;128.78;;;;;;;-5.27;64.75;94475.84;1753472;80;21057;-51
2022/01/08 08:10:51;;;;;;;253.22;113.05;;;;;;;-5.21;64.66;94476.52;1762293;80;21089;-50
2022/01/08 08:13:20;;;;;;;160.20;70.55;;;;;;;-5.14;64.38;94480.69;1759442;80;20994;-51
2022/01/08 08:15:47;;;;;;;270.85;115.35;;;;;;;-5.07;64.12;94466.06;1772909;80;21112;-53
2022/01/08 08:18:14;;;;;;;250.22;104.87;;;;;;;-5.06;63.96;94468.41;1744486;80;21485;-52
2022/01/08 08:20:41;;;;;;;172.28;74.95;;;;;;;-4.99;64.20;94473.13;1779782;80;21119;-52
2022/01/08 08:23:08;;;;;;;160.97;74.72;;;;;;;-4.92;64.08;94462.52;1779834;80;20985;-52
2022/01/08 08:25:35;;;;;;;122.75;59.53;;;;;;;-4.85;64.17;94452.69;1769083;80;21594;-52
2022/01/08 08:28:04;;;;;;;128.10;65.12;;;;;;;-4.69;64.08;94452.00;1768515;80;21828;-51
2022/01/08 08:30:33;;;;;;;161.95;79.32;;;;;;;-4.44;64.03;94449.72;1762901;80;21061;-52
2022/01/08 08:33:01;;;;;;;162.15;80.10;;;;;;;-4.17;64.03;94447.25;1768335;80;21057;-52
2022/01/08 08:35:28;;;;;;;157.43;76.82;;;;;;;-3.83;63.75;94446.20;1777057;80;21215;-51
2022/01/08 08:37:55;;;;;;;130.43;69.22;;;;;;;-3.52;63.25;94444.70;1752271;80;20942;-53
2022/01/08 08:40:21;;;;;;;96.97;53.38;;;;;;;-3.25;62.39;94450.19;1729055;80;21875;-52
2022/01/08 08:42:48;;;;;;;109.20;64.30;;;;;;;-3.14;61.71;94447.62;1765485;80;21100;-52
2022/01/08 08:45:16;;;;;;;91.35;50.35;;;;;;;-3.10;61.34;94443.83;1757128;80;21043;-54
2022/01/08 08:47:42;;;;;;;141.47;78.47;;;;;;;-3.08;61.40;94437.52;1742787;82;21471;-52
2022/01/08 08:50:12;;;;;;;86.97;46.25;;;;;;;-2.95;61.52;94433.42;1758285;80;21629;-53
2022/01/08 08:52:41;;;;;;;73.75;40.12;;;;;;;-2.78;61.41;94426.09;1780064;80;21123;-50
2022/01/08 08:55:08;;;;;;;60.75;34.10;;;;;;;-2.55;61.20;94420.54;1753068;80;20951;-50
2022/01/08 08:57:35;;;;;;;74.37;37.75;;;;;;;-2.33;60.82;94411.47;1755880;80;20980;-52
2022/01/08 09:00:04;;;;;;;90.30;47.40;;;;;;;-2.13;60.50;94409.48;1755169;80;20955;-51
2022/01/08 09:02:35;;;;;;;117.62;59.15;;;;;;;-1.85;60.07;94407.53;1768063;80;21038;-52
2022/01/08 09:05:02;;;;;;;118.87;64.30;;;;;;;-1.59;58.99;94407.50;1765297;80;21189;-53
2022/01/08 09:07:29;;;;;;;149.95;72.65;;;;;;;-1.54;58.43;94405.02;1765937;80;21049;-50
2022/01/08 09:09:55;;;;;;;130.90;69.42;;;;;;;-1.53;58.19;94403.87;1764332;80;21013;-53
2022/01/08 09:12:22;;;;;;;138.85;73.92;;;;;;;-1.48;58.19;94404.25;1755079;81;21054;-51
2022/01/08 09:14:48;;;;;;;123.80;70.30;;;;;;;-1.46;59.13;94399.84;1736649;81;20993;-52
2022/01/08 09:17:17;;;;;;;110.97;59.93;;;;;;;-1.22;58.76;94388.35;1770248;80;21562;-51
2022/01/08 09:19:45;;;;;;;128.50;70.03;;;;;;;-1.08;58.47;94389.75;1728248;81;20972;-52
2022/01/08 09:22:12;;;;;;;157.30;82.20;;;;;;;-1.07;58.46;94381.84;1750586;80;21053;-50
2022/01/08 09:24:41;;;;;;;150.18;78.70;;;;;;;-1.11;58.13;94383.77;1773998;80;20954;-52
2022/01/08 09:27:07;;;;;;;195.57;99.97;;;;;;;-1.27;58.31;94378.73;1754708;80;20999;-52
2022/01/08 09:29:34;;;;;;;166.75;82.55;;;;;;;-1.32;58.75;94376.37;1752805;80;21460;-51
2022/01/08 09:32:00;;;;;;;200.18;97.17;;;;;;;-1.23;59.20;94380.06;1772253;80;21418;-51
2022/01/08 09:34:27;;;;;;;186.90;96.53;;;;;;;-1.05;59.38;94368.73;1768785;80;21530;-52
2022/01/08 09:36:53;;;;;;;160.67;86.10;;;;;;;-0.71;58.83;94361.84;1758608;80;21559;-50
2022/01/08 09:39:22;;;;;;;156.87;80.42;;;;;;;-0.42;58.88;94353.36;1751161;80;21028;-52
2022/01/08 09:41:48;;;;;;;170.68;90.45;;;;;;;-0.15;58.41;94359.12;1750481;80;21853;-53
2022/01/08 09:44:17;;;;;;;199.65;99.70;;;;;;;-0.02;57.48;94352.16;1777151;80;21648;-51
2022/01/08 09:46:43;;;;;;;174.32;87.92;;;;;;;-0.03;56.97;94354.07;1759521;80;21002;-53
2022/01/08 09:49:11;;;;;;;152.25;77.62;;;;;;;-0.02;56.82;94356.21;1769950;80;21502;-51
2022/01/08 09:51:37;;;;;;;156.28;81.78;;;;;;;0.06;56.81;94349.80;1763634;80;21034;-54
2022/01/08 09:54:04;;;;;;;138.55;72.50;;;;;;;0.10;56.39;94343.83;1764066;80;21554;-52
2022/01/08 09:56:32;;;;;;;132.47;69.85;;;;;;;0.13;56.21;94338.98;1779933;80;21049;-52
2022/01/08 09:59:00;;;;;;;166.15;87.65;;;;;;;0.24;56.16;94340.30;1768908;80;21482;-51
2022/01/08 10:01:35;;;;;;;139.85;76.82;;;;;;;0.36;55.99;94336.59;1774644;80;21097;-53
2022/01/08 10:04:05;;;;;;;166.92;91.00;;;;;;;0.38;55.65;94331.55;1752060;81;21438;-55
2022/01/08 10:06:35;;;;;;;148.78;79.35;;;;;;;0.37;55.70;94323.25;1762856;80;21131;-52
2022/01/08 10:09:07;;;;;;;142.50;77.75;;;;;;;0.58;55.57;94314.28;1774774;80;20953;-52
2022/01/08 10:11:34;;;;;;;129.90;70.25;;;;;;;0.69;55.45;94314.41;1695792;81;21042;-52
2022/01/08 10:14:05;;;;;;;133.93;72.17;;;;;;;0.81;55.28;94307.77;1733125;82;20983;-52
2022/01/08 10:19:23;;;;;;;151.78;87.60;;;;;;;0.87;56.00;94304.25;1723448;81;20972;-53
2022/01/08 10:21:52;;;;;;;139.63;80.43;;;;;;;1.43;55.45;94297.07;1713252;83;21176;-53
2022/01/08 10:24:27;;;;;;;130.70;77.70;;;;;;;2.04;55.09;94295.52;1688104;83;21082;-52
2022/01/08 10:27:05;;;;;;;116.67;65.92;;;;;;;2.57;53.78;94309.25;1724967;80;20982;-52
2022/01/08 10:29:32;;;;;;;110.60;65.83;;;;;;;2.92;52.60;94295.22;1760768;80;21086;-51
2022/01/08 10:32:01;;;;;;;114.32;68.67;;;;;;;3.06;52.57;94301.78;1750664;80;21099;-51
2022/01/08 10:34:30;;;;;;;116.73;67.15;;;;;;;3.24;52.17;94305.63;1741321;81;21187;-53
2022/01/08 10:37:01;;;;;;;118.60;72.80;;;;;;;3.33;51.80;94290.91;1737767;80;21010;-52
2022/01/08 10:39:33;;;;;;;88.87;52.78;;;;;;;3.33;51.98;94283.54;1779792;80;21445;-54
2022/01/08 10:42:10;;;;;;;121.67;67.82;;;;;;;3.45;51.56;94274.78;1763464;80;21052;-55
2022/01/08 10:44:40;;;;;;;99.72;58.40;;;;;;;3.43;51.35;94269.59;1752557;80;21159;-52
2022/01/08 10:47:12;;;;;;;108.92;62.75;;;;;;;3.36;51.51;94266.40;1752885;80;20969;-57
2022/01/08 10:49:43;;;;;;;111.57;58.78;;;;;;;3.45;51.29;94265.27;1721952;82;21454;-54
2022/01/08 10:52:18;;;;;;;104.67;61.10;;;;;;;3.39;50.77;94278.41;1710204;83;21473;-52
2022/01/08 10:54:57;;;;;;;128.57;72.50;;;;;;;3.02;51.14;94271.19;1697617;83;21054;-53
2022/01/08 10:57:37;;;;;;;122.15;67.90;;;;;;;2.62;51.61;94267.28;1756064;80;21090;-51
2022/01/08 11:00:11;;;;;;;136.92;76.07;;;;;;;2.31;52.34;94271.19;1745717;80;21533;-55
2022/01/08 11:02:41;;;;;;;144.85;80.75;;;;;;;2.03;52.86;94266.08;1722646;81;21099;-51
2022/01/08 11:05:10;;;;;;;134.47;73.15;;;;;;;1.81;53.19;94263.41;1733569;80;21056;-53
2022/01/08 11:07:44;;;;;;;108.20;65.75;;;;;;;1.54;53.76;94265.21;1773512;80;21058;-52
2022/01/08 11:10:16;;;;;;;117.55;70.57;;;;;;;1.40;54.38;94263.22;1687080;83;21909;-51
2022/01/08 11:12:46;;;;;;;111.85;65.65;;;;;;;1.34;54.77;94256.10;1734060;81;21045;-52
2022/01/08 11:17:57;;;;;;;145.43;85.12;;;;;;;1.58;55.31;94257.84;1741260;81;21403;-54
2022/01/08 11:20:28;;;;;;;151.63;90.70;;;;;;;1.46;55.75;94240.72;1775023;80;21065;-51
2022/01/08 11:23:00;;;;;;;141.80;82.27;;;;;;;1.35;56.37;94231.90;1774475;80;21080;-53
2022/01/08 11:25:38;;;;;;;130.60;72.80;;;;;;;1.25;56.83;94240.13;1769513;80;38621;-51
2022/01/08 11:28:12;;;;;;;102.87;60.40;;;;;;;1.39;56.81;94230.52;1749400;80;20978;-56
2022/01/08 11:30:50;;;;;;;87.33;54.18;;;;;;;1.51;56.75;94230.03;1745133;80;21557;-52
2022/01/08 11:33:24;;;;;;;96.40;58.90;;;;;;;1.44;56.75;94230.86;1757813;80;20923;-52
2022/01/08 11:35:52;;;;;;;127.87;74.82;;;;;;;1.40;57.00;94234.20;1732502;82;21136;-52
2022/01/08 11:38:22;;;;;;;140.45;82.80;;;;;;;1.43;57.68;94237.45;1734251;82;21003;-51
2022/01/08 11:40:53;;;;;;;161.97;94.65;;;;;;;1.56;57.92;94233.08;1736549;80;21426;-52